Time;durP1;ratioP1;P1;durP2;ratioP2;P2;SDS_P1;SDS_P2;PMS_P1;PMS_P2;Temp;Humidity;BMP_temperature;BMP_pressure;BME280_temperature;BME280_humidity;BME280_pressure;Samples;Min_cycle;Max_cycle;Signal;HPM_P1;HPM_P2
2023/01/26 04:43:59;;;;;;;39.60;25.90;;;;;;;-0.59;73.34;100416.55;105169;1283;613089;-38
2023/01/26 04:46:28;;;;;;;38.80;25.90;;;;;;;-0.15;71.79;100416.85;106564;1267;166091;-38
2023/01/26 04:48:58;;;;;;;39.00;24.30;;;;;;;-0.24;71.66;100415.40;106707;1268;60338;-40
2023/01/26 04:51:27;;;;;;;40.20;23.50;;;;;;;-0.28;71.64;100410.05;106616;1269;73470;-40
2023/01/26 04:53:56;;;;;;;40.90;24.30;;;;;;;-0.27;71.23;100411.02;106683;1268;69643;-40
2023/01/26 04:56:26;;;;;;;37.70;23.40;;;;;;;-0.24;71.01;100409.37;106724;1266;73919;-40
2023/01/26 04:58:54;;;;;;;41.20;24.50;;;;;;;-0.26;70.81;100409.06;106753;1267;59294;-39
2023/01/26 05:01:24;;;;;;;32.10;19.10;;;;;;;-0.25;70.61;100406.49;106758;1271;61339;-39
2023/01/26 05:03:54;;;;;;;40.80;24.00;;;;;;;-0.25;70.42;100402.70;107279;1258;73064;-39
2023/01/26 05:06:23;;;;;;;39.50;24.10;;;;;;;-0.26;70.11;100401.80;107247;1259;69137;-39
2023/01/26 05:08:52;;;;;;;42.10;26.60;;;;;;;-0.30;69.81;100399.45;107122;1257;73556;-39
2023/01/26 05:11:20;;;;;;;41.10;24.20;;;;;;;-0.36;69.94;100405.39;107263;1258;60289;-39
2023/01/26 05:14:18;;;;;;;40.50;24.90;;;;;;;-0.42;69.79;100405.69;106908;1257;61515;-39
2023/01/26 05:17:13;;;;;;;43.20;25.60;;;;;;;-0.43;69.92;100405.80;107229;1257;72504;-39
2023/01/26 05:20:01;;;;;;;39.20;25.00;;;;;;;-0.41;70.04;100399.09;107223;1262;69717;-39
2023/01/26 05:22:40;;;;;;;47.50;27.00;;;;;;;-0.33;70.23;100403.43;107236;1262;74051;-39
2023/01/26 05:25:27;;;;;;;44.60;26.20;;;;;;;-0.30;70.11;100397.64;107256;1257;60523;-39
2023/01/26 05:28:02;;;;;;;44.60;26.20;;;;;;;-0.31;70.06;100396.83;107275;1256;61389;-39
2023/01/26 05:30:30;;;;;;;46.70;27.30;;;;;;;-0.33;70.01;100398.95;107298;1262;73932;-41
2023/01/26 05:33:02;;;;;;;44.20;27.00;;;;;;;-0.34;70.05;100395.42;107257;1263;69628;-39
2023/01/26 05:35:32;;;;;;;44.90;26.20;;;;;;;-0.37;69.63;100394.09;107092;1261;73816;-40
2023/01/26 05:38:00;;;;;;;51.60;27.40;;;;;;;-0.45;69.79;100392.58;107093;1262;62408;-39
2023/01/26 05:40:32;;;;;;;41.80;24.70;;;;;;;-0.42;69.85;100390.23;107228;1261;61262;-40
2023/01/26 05:43:01;;;;;;;44.60;25.70;;;;;;;-0.35;69.60;100387.34;107201;1257;73948;-40
2023/01/26 05:45:58;;;;;;;48.10;27.00;;;;;;;-0.29;69.77;100384.80;107095;1262;69948;-41
2023/01/26 05:48:27;;;;;;;42.70;25.70;;;;;;;-0.29;69.84;100388.99;107210;1257;73664;-39
2023/01/26 05:50:57;;;;;;;47.00;28.70;;;;;;;-0.25;69.89;100390.02;107209;1262;60582;-39
2023/01/26 05:53:26;;;;;;;54.30;29.80;;;;;;;-0.23;69.75;100390.67;107202;1257;61546;-39
2023/01/26 05:55:55;;;;;;;45.50;27.50;;;;;;;-0.23;69.69;100388.96;107074;1259;74334;-39
2023/01/26 05:58:25;;;;;;;44.60;27.40;;;;;;;-0.24;69.60;100394.17;107093;1257;68876;-39
2023/01/26 06:00:53;;;;;;;45.90;28.60;;;;;;;-0.26;69.47;100394.55;107114;1257;73525;-40
2023/01/26 06:03:25;;;;;;;46.90;26.80;;;;;;;-0.28;69.59;100393.26;107201;1257;60481;-40
2023/01/26 06:05:54;;;;;;;41.90;24.70;;;;;;;-0.30;69.26;100396.25;107233;1257;61355;-41
2023/01/26 06:08:38;;;;;;;39.40;25.20;;;;;;;-0.23;69.36;100395.79;107249;1258;71808;-39
2023/01/26 06:11:25;;;;;;;40.50;25.80;;;;;;;-0.21;69.42;100399.16;107243;1258;69926;-39
2023/01/26 06:14:05;;;;;;;44.30;27.00;;;;;;;-0.26;69.16;100403.56;107232;1261;73882;-39
2023/01/26 06:16:34;;;;;;;51.10;28.60;;;;;;;-0.29;69.28;100402.75;107242;1260;60809;-40
2023/01/26 06:19:06;;;;;;;44.50;26.70;;;;;;;-0.31;69.39;100397.89;107242;1257;61584;-39
2023/01/26 06:21:35;;;;;;;43.80;27.10;;;;;;;-0.31;69.30;100400.34;107283;1257;73715;-39
2023/01/26 06:24:04;;;;;;;46.80;28.70;;;;;;;-0.31;69.19;100401.84;107233;1257;70010;-40
2023/01/26 06:26:33;;;;;;;43.30;25.70;;;;;;;-0.36;69.28;100403.00;107253;1262;73783;-40
2023/01/26 06:29:02;;;;;;;47.10;27.20;;;;;;;-0.40;69.52;100399.05;107150;1262;60956;-40
2023/01/26 06:31:35;;;;;;;42.80;27.00;;;;;;;-0.42;69.65;100400.04;107097;1262;61622;-40
2023/01/26 06:34:04;;;;;;;42.60;26.20;;;;;;;-0.41;69.62;100406.23;107144;1257;71199;-40
2023/01/26 06:36:37;;;;;;;39.70;24.80;;;;;;;-0.35;69.77;100406.73;107192;1257;69289;-40
2023/01/26 06:39:09;;;;;;;;;;;;;;;-0.31;69.77;100405.45;107181;1257;73615;-40
2023/01/26 06:41:38;;;;;;;44.30;25.10;;;;;;;-0.34;70.00;100405.02;107142;1260;59616;-40
2023/01/26 06:44:07;;;;;;;35.70;20.80;;;;;;;-0.35;70.25;100402.73;107138;1257;61438;-40
2023/01/26 06:46:36;;;;;;;44.30;26.30;;;;;;;-0.31;70.00;100402.32;107153;1258;73919;-40
2023/01/26 06:49:04;;;;;;;49.80;28.00;;;;;;;-0.33;69.78;100403.05;107284;1257;69617;-40
2023/01/26 06:51:42;;;;;;;45.10;27.10;;;;;;;-0.39;70.08;100402.61;107241;1260;74023;-40
2023/01/26 06:54:11;;;;;;;43.20;25.40;;;;;;;-0.43;70.14;100401.58;107157;1257;62239;-40
2023/01/26 06:56:58;;;;;;;38.90;24.60;;;;;;;-0.38;70.19;100401.98;107242;1258;61285;-39
2023/01/26 06:59:39;;;;;;;40.40;25.80;;;;;;;-0.28;70.18;100399.77;107218;1260;72612;-38
2023/01/26 07:02:18;;;;;;;42.50;26.30;;;;;;;-0.25;70.47;100403.02;107253;1258;69903;-39
2023/01/26 07:04:48;;;;;;;45.20;27.70;;;;;;;-0.20;70.61;100404.05;107218;1257;73742;-40
2023/01/26 07:07:17;;;;;;;48.00;28.10;;;;;;;-0.19;70.43;100403.88;107224;1257;60528;-40
2023/01/26 07:10:06;;;;;;;51.90;28.90;;;;;;;-0.21;70.41;100403.14;107194;1257;61745;-39
2023/01/26 07:12:38;;;;;;;;;;;;;;;-0.29;70.54;100403.81;107255;1257;73942;-40
2023/01/26 07:15:08;;;;;;;48.70;28.80;;;;;;;-0.42;71.06;100401.91;107186;1257;69885;-39
2023/01/26 07:17:38;;;;;;;45.50;27.70;;;;;;;-0.48;71.27;100403.70;107219;1257;70398;-40
2023/01/26 07:20:08;;;;;;;41.60;23.20;;;;;;;-0.42;71.23;100401.21;107200;1257;60851;-39
2023/01/26 07:22:36;;;;;;;50.70;29.30;;;;;;;-0.44;71.53;100401.36;107235;1257;61291;-40
2023/01/26 07:25:07;;;;;;;53.70;30.80;;;;;;;-0.51;71.70;100400.12;107193;1258;74383;-40
2023/01/26 07:27:36;;;;;;;53.80;30.40;;;;;;;-0.55;72.00;100398.67;107208;1257;69929;-39
2023/01/26 07:30:05;;;;;;;51.60;29.20;;;;;;;-0.53;72.48;100397.55;107172;1257;73767;-39
2023/01/26 07:32:36;;;;;;;52.40;30.40;;;;;;;-0.47;72.47;100392.52;107269;1257;59630;-39
2023/01/26 07:35:06;;;;;;;49.30;29.50;;;;;;;-0.44;72.54;100394.45;107067;1257;61574;-39
2023/01/26 07:37:35;;;;;;;55.80;31.10;;;;;;;-0.33;72.16;100389.42;107139;1257;71864;-39
2023/01/26 07:40:07;;;;;;;53.20;31.50;;;;;;;-0.32;72.39;100393.46;107062;1257;69676;-39
2023/01/26 07:42:37;;;;;;;56.20;32.30;;;;;;;-0.33;72.50;100389.73;107253;1257;73852;-40
2023/01/26 07:45:26;;;;;;;52.80;30.80;;;;;;;-0.33;72.45;100392.40;107038;1257;59441;-40
2023/01/26 07:47:54;;;;;;;50.80;31.00;;;;;;;-0.37;72.47;100387.16;107195;1257;61324;-40
2023/01/26 07:50:24;;;;;;;53.50;31.50;;;;;;;-0.40;72.44;100387.32;107256;1257;73822;-40
2023/01/26 07:52:53;;;;;;;57.70;31.20;;;;;;;-0.42;72.44;100391.36;107231;1257;69937;-40
2023/01/26 07:55:25;;;;;;;50.00;29.80;;;;;;;-0.35;72.78;100392.66;107199;1257;73601;-40
2023/01/26 07:57:53;;;;;;;51.60;31.00;;;;;;;-0.21;72.75;100389.29;107217;1257;60708;-40
2023/01/26 08:00:22;;;;;;;50.60;30.70;;;;;;;-0.13;72.76;100387.34;107277;1257;61562;-40
2023/01/26 08:02:50;;;;;;;51.10;32.20;;;;;;;-0.12;72.70;100384.73;107274;1257;72696;-40
2023/01/26 08:05:19;;;;;;;56.40;31.20;;;;;;;-0.08;72.64;100392.20;107205;1257;67625;-40
2023/01/26 08:07:48;;;;;;;56.40;31.70;;;;;;;-0.05;72.71;100393.32;107262;1257;73882;-40
2023/01/26 08:10:17;;;;;;;54.90;32.90;;;;;;;-0.02;72.49;100394.08;107198;1257;60798;-40
2023/01/26 08:12:45;;;;;;;56.70;33.40;;;;;;;-0.01;72.31;100388.05;107213;1257;61687;-40
2023/01/26 08:15:14;;;;;;;50.90;31.70;;;;;;;-0.05;72.61;100385.59;107247;1257;74084;-40
2023/01/26 08:17:42;;;;;;;52.70;32.00;;;;;;;-0.03;72.40;100382.61;107241;1257;69886;-39
2023/01/26 08:20:12;;;;;;;55.10;32.40;;;;;;;0.06;72.52;100383.58;107201;1257;73891;-39
2023/01/26 08:22:41;;;;;;;52.90;32.90;;;;;;;0.09;72.66;100385.93;107210;1260;59656;-39
2023/01/26 08:25:10;;;;;;;53.00;32.60;;;;;;;0.08;72.65;100388.98;107236;1260;61517;-38
2023/01/26 08:27:38;;;;;;;58.60;33.80;;;;;;;0.10;73.10;100388.59;107133;1257;72683;-39
2023/01/26 08:30:08;;;;;;;54.60;31.00;;;;;;;0.13;72.75;100387.43;107152;1260;69878;-38
2023/01/26 08:32:36;;;;;;;;;;;;;;;0.13;72.45;100388.65;107184;1260;73889;-38
2023/01/26 08:35:06;;;;;;;52.50;31.30;;;;;;;0.09;72.82;100383.63;107113;1257;60200;-39
2023/01/26 08:37:34;;;;;;;51.80;28.70;;;;;;;0.10;72.63;100380.00;107125;1257;61304;-39
2023/01/26 08:40:03;;;;;;;49.20;30.20;;;;;;;0.23;72.49;100377.14;107198;1257;74214;-39
2023/01/26 08:42:32;;;;;;;51.40;30.50;;;;;;;0.31;72.37;100374.36;107233;1257;69629;-39
2023/01/26 08:45:01;;;;;;;42.90;24.60;;;;;;;0.37;72.05;100372.60;107202;1257;73853;-39
2023/01/26 08:47:32;;;;;;;53.70;30.70;;;;;;;0.41;71.83;100369.67;107254;1257;60802;-40
2023/01/26 08:50:00;;;;;;;51.40;28.30;;;;;;;0.41;71.88;100370.42;107245;1257;61526;-40
2023/01/26 08:52:29;;;;;;;55.60;30.90;;;;;;;0.40;71.69;100367.22;107201;1257;74269;-46
2023/01/26 08:54:57;;;;;;;55.10;31.50;;;;;;;0.37;71.50;100362.05;107248;1257;69976;-39
2023/01/26 08:57:26;;;;;;;53.70;30.30;;;;;;;0.34;71.38;100360.34;107234;1260;73533;-39
2023/01/26 08:59:54;;;;;;;49.90;29.90;;;;;;;0.37;71.86;100358.90;107165;1258;62514;-39
2023/01/26 09:02:23;;;;;;;46.40;27.70;;;;;;;0.44;71.31;100358.36;107272;1257;61508;-40
2023/01/26 09:04:51;;;;;;;49.90;28.60;;;;;;;0.50;71.03;100354.30;107234;1257;75071;-39
2023/01/26 09:07:20;;;;;;;43.30;27.20;;;;;;;0.52;70.99;100348.85;107225;1257;69908;-39
2023/01/26 09:09:49;;;;;;;41.30;25.80;;;;;;;0.59;71.20;100344.36;107201;1257;73559;-39
2023/01/26 09:12:17;;;;;;;42.50;25.60;;;;;;;0.64;70.77;100340.83;107207;1258;60654;-39
2023/01/26 09:14:46;;;;;;;46.40;26.00;;;;;;;0.68;70.18;100339.06;107275;1258;61610;-40
2023/01/26 09:17:14;;;;;;;46.60;27.70;;;;;;;0.68;69.65;100339.42;107200;1260;73456;-39
2023/01/26 09:19:43;;;;;;;48.10;27.40;;;;;;;0.62;69.90;100339.72;107217;1257;70007;-40
2023/01/26 09:22:12;;;;;;;43.10;24.80;;;;;;;0.57;70.11;100341.17;107100;1257;71333;-39
2023/01/26 09:24:40;;;;;;;40.30;22.70;;;;;;;0.54;70.14;100340.53;107082;1258;61364;-39
2023/01/26 09:27:09;;;;;;;32.90;19.20;;;;;;;0.59;69.77;100347.14;107228;1257;61429;-41
2023/01/26 09:29:37;;;;;;;35.90;21.10;;;;;;;0.62;68.91;100343.19;107331;1260;75036;-40
2023/01/26 09:32:06;;;;;;;36.60;22.50;;;;;;;0.62;69.13;100345.91;107189;1257;68455;-39
2023/01/26 09:34:34;;;;;;;37.80;22.00;;;;;;;0.62;69.59;100343.45;107264;1257;73870;-40
2023/01/26 09:37:06;;;;;;;34.70;21.60;;;;;;;0.63;69.46;100337.63;107225;1257;60322;-39
2023/01/26 09:39:34;;;;;;;40.30;21.90;;;;;;;0.60;69.76;100331.13;107246;1257;61528;-39
2023/01/26 09:42:24;;;;;;;32.00;19.90;;;;;;;0.54;69.41;100329.80;107237;1256;75033;-39
2023/01/26 09:44:59;;;;;;;34.90;19.70;;;;;;;0.48;69.51;100327.62;107214;1257;69014;-39
2023/01/26 09:47:49;;;;;;;30.30;18.00;;;;;;;0.42;69.41;100332.33;107244;1257;73971;-40
2023/01/26 09:50:18;;;;;;;;;;;;;;;0.39;69.50;100327.84;107100;1257;62446;-40
2023/01/26 09:53:00;;;;;;;26.20;16.50;;;;;;;0.36;69.54;100324.17;107150;1257;61233;-39
2023/01/26 09:55:30;;;;;;;25.10;16.00;;;;;;;0.32;69.73;100321.92;107140;1257;75033;-39
2023/01/26 09:58:09;;;;;;;29.60;17.20;;;;;;;0.37;70.10;100323.27;107125;1257;69139;-39
2023/01/26 10:00:45;;;;;;;25.90;16.40;;;;;;;0.44;70.05;100320.42;107086;1257;73912;-40
2023/01/26 10:03:31;;;;;;;22.40;15.80;;;;;;;0.46;69.99;100316.85;107108;1258;60748;-40
2023/01/26 10:06:25;;;;;;;25.10;16.00;;;;;;;0.48;69.94;100323.25;107211;1257;61571;-40
2023/01/26 10:09:17;;;;;;;27.60;15.00;;;;;;;0.42;69.46;100320.80;107182;1257;75020;-40
2023/01/26 10:11:48;;;;;;;23.20;15.40;;;;;;;0.44;69.76;100319.36;107159;1257;69973;-39
2023/01/26 10:14:33;;;;;;;25.60;16.30;;;;;;;0.47;69.70;100314.38;107152;1256;73842;-40
2023/01/26 10:17:03;;;;;;;27.60;15.60;;;;;;;0.47;69.55;100307.73;107205;1257;60705;-40
2023/01/26 10:19:39;;;;;;;24.70;15.70;;;;;;;0.49;69.66;100305.33;107201;1257;61305;-40
2023/01/26 10:22:12;;;;;;;24.30;16.00;;;;;;;0.51;69.78;100300.35;107271;1256;75020;-40
2023/01/26 10:24:40;;;;;;;21.80;14.10;;;;;;;0.52;69.64;100296.08;107361;1257;68523;-40
2023/01/26 10:27:10;;;;;;;21.80;13.60;;;;;;;0.52;68.60;100291.92;107220;1256;72824;-40
2023/01/26 10:29:39;;;;;;;23.50;15.00;;;;;;;0.53;68.90;100290.69;107271;1256;60604;-40
2023/01/26 10:32:15;;;;;;;20.90;13.30;;;;;;;0.56;68.83;100283.85;107314;1256;61405;-40
2023/01/26 10:34:45;;;;;;;21.10;12.70;;;;;;;0.63;68.76;100281.38;107303;1256;75045;-40
2023/01/26 10:37:23;;;;;;;19.10;11.80;;;;;;;0.75;67.22;100270.02;107325;1255;68544;-39
2023/01/26 10:39:59;;;;;;;19.40;11.80;;;;;;;0.88;66.91;100265.87;107295;1256;73876;-40
2023/01/26 10:42:29;;;;;;;19.50;12.00;;;;;;;0.99;66.40;100263.20;107277;1256;60728;-39
2023/01/26 10:45:00;;;;;;;15.90;10.40;;;;;;;1.06;64.84;100261.25;107264;1256;61283;-39
2023/01/26 10:47:30;;;;;;;13.70;9.10;;;;;;;1.08;63.26;100259.00;107251;1256;75058;-39
2023/01/26 10:50:18;;;;;;;15.00;9.50;;;;;;;1.05;63.11;100260.94;107224;1260;69824;-39
2023/01/26 10:52:58;;;;;;;16.80;9.60;;;;;;;1.03;63.02;100262.39;107263;1256;73872;-39
2023/01/26 10:55:27;;;;;;;17.20;10.30;;;;;;;1.00;63.42;100261.34;107269;1260;60902;-40
2023/01/26 10:57:55;;;;;;;15.20;10.80;;;;;;;0.98;63.51;100261.02;106501;1255;1003222;-40
2023/01/26 11:00:32;;;;;;;17.00;10.70;;;;;;;0.95;63.26;100258.64;107213;1256;74870;-39
2023/01/26 11:03:12;;;;;;;17.70;10.70;;;;;;;0.91;63.70;100259.41;107273;1257;68916;-40
2023/01/26 11:05:43;;;;;;;19.00;11.50;;;;;;;0.89;63.90;100256.20;107289;1256;73749;-40
2023/01/26 11:08:35;;;;;;;17.50;11.10;;;;;;;0.88;64.47;100251.46;107271;1260;60765;-40
2023/01/26 11:11:06;;;;;;;16.00;10.90;;;;;;;0.91;63.98;100244.14;107245;1257;61571;-40
2023/01/26 11:13:35;;;;;;;15.80;9.50;;;;;;;0.95;64.39;100235.08;107224;1255;75229;-40
2023/01/26 11:16:13;;;;;;;15.20;9.10;;;;;;;1.10;62.59;100233.05;107313;1257;69894;-41
2023/01/26 11:19:01;;;;;;;15.00;10.20;;;;;;;1.14;61.88;100226.39;106562;1256;1003031;-41
2023/01/26 11:21:41;;;;;;;15.10;10.40;;;;;;;1.08;61.40;100232.89;107302;1256;60436;-40
2023/01/26 11:24:24;;;;;;;17.90;10.70;;;;;;;0.99;61.73;100228.81;107342;1256;61009;-40
2023/01/26 11:27:14;;;;;;;18.90;11.70;;;;;;;0.96;62.40;100231.94;107328;1256;75196;-40
2023/01/26 11:30:00;;;;;;;18.00;12.30;;;;;;;0.92;62.98;100233.28;107325;1256;69037;-41
2023/01/26 11:32:37;;;;;;;18.50;12.10;;;;;;;0.85;63.30;100229.00;107302;1256;73933;-40
2023/01/26 11:35:11;;;;;;;19.40;12.40;;;;;;;0.78;63.27;100222.88;106537;1256;1003008;-40
2023/01/26 11:37:48;;;;;;;17.50;11.90;;;;;;;0.72;63.30;100222.16;107248;1256;61515;-40
2023/01/26 11:40:24;;;;;;;17.30;11.60;;;;;;;0.65;63.28;100222.46;107280;1256;75117;-40
2023/01/26 11:43:14;;;;;;;17.60;12.10;;;;;;;0.54;63.20;100217.73;107213;1256;69920;-40
2023/01/26 11:46:10;;;;;;;21.00;11.50;;;;;;;0.48;63.34;100213.60;107226;1255;73849;-40
2023/01/26 11:49:16;;;;;;;22.10;12.20;;;;;;;0.44;63.92;100210.83;107144;1256;59749;-40
2023/01/26 11:52:04;;;;;;;19.00;12.20;;;;;;;0.43;63.90;100209.30;107219;1255;61421;-40
2023/01/26 11:54:51;;;;;;;18.40;11.30;;;;;;;0.48;63.84;100206.23;107305;1256;74806;-40
2023/01/26 11:57:32;;;;;;;18.90;11.50;;;;;;;0.54;63.84;100207.19;107339;1256;69965;-39
2023/01/26 12:00:03;;;;;;;20.30;11.80;;;;;;;0.54;63.96;100207.23;107251;1256;73870;-39
2023/01/26 12:02:41;;;;;;;20.90;12.70;;;;;;;0.52;64.06;100204.36;107213;1256;60449;-40
2023/01/26 12:05:16;;;;;;;23.50;12.40;;;;;;;0.50;64.30;100204.36;107312;1256;60339;-39
2023/01/26 12:08:37;;;;;;;19.90;12.10;;;;;;;0.51;64.12;100196.36;107313;1256;74028;-40
2023/01/26 12:11:28;;;;;;;21.60;13.70;;;;;;;0.50;63.57;100189.27;107314;1256;71063;-40
2023/01/26 12:14:12;;;;;;;19.80;12.10;;;;;;;0.43;63.54;100188.40;107278;1256;73887;-39
2023/01/26 12:17:00;;;;;;;21.60;13.10;;;;;;;0.42;64.21;100194.05;107257;1255;60600;-39
2023/01/26 12:19:45;;;;;;;24.50;13.30;;;;;;;0.40;64.84;100195.17;107256;1256;61784;-39
2023/01/26 12:22:34;;;;;;;23.80;13.80;;;;;;;0.37;65.16;100194.22;107302;1256;74801;-39
2023/01/26 12:25:31;;;;;;;25.30;13.00;;;;;;;0.37;65.21;100190.81;107191;1255;69901;-39
2023/01/26 12:28:20;;;;;;;24.60;14.70;;;;;;;0.43;65.26;100190.10;107229;1256;73579;-39
2023/01/26 12:31:22;;;;;;;19.80;12.00;;;;;;;0.45;64.85;100192.23;107215;1256;60812;-38
2023/01/26 12:33:52;;;;;;;25.40;14.20;;;;;;;0.46;65.18;100191.48;107263;1256;59586;-40
2023/01/26 12:36:33;;;;;;;25.10;14.70;;;;;;;0.48;65.08;100191.73;107221;1256;75098;-39
2023/01/26 12:39:11;;;;;;;23.10;14.90;;;;;;;0.50;65.03;100194.45;107273;1256;69803;-40
2023/01/26 12:41:58;;;;;;;24.70;15.50;;;;;;;0.48;65.30;100189.59;107216;1257;73914;-39
2023/01/26 12:44:41;;;;;;;25.40;15.40;;;;;;;0.44;65.18;100189.08;107227;1256;60402;-39
2023/01/26 12:47:33;;;;;;;26.10;15.30;;;;;;;0.37;65.40;100188.94;107256;1256;60429;-39
2023/01/26 12:50:10;;;;;;;24.30;14.80;;;;;;;0.30;65.62;100186.50;107189;1256;74244;-40
2023/01/26 12:52:53;;;;;;;25.80;14.40;;;;;;;0.24;65.51;100187.27;107335;1256;69845;-40
2023/01/26 12:55:27;;;;;;;24.40;14.00;;;;;;;0.20;65.68;100184.92;107292;1256;74501;-41
2023/01/26 12:57:59;;;;;;;25.60;14.40;;;;;;;0.22;65.47;100179.70;107302;1256;62390;-39
2023/01/26 13:00:34;;;;;;;26.30;14.50;;;;;;;0.27;65.45;100178.58;107279;1256;61516;-39
2023/01/26 13:03:27;;;;;;;20.60;12.70;;;;;;;0.29;65.70;100174.93;107300;1255;73278;-39
2023/01/26 13:05:57;;;;;;;26.30;14.10;;;;;;;0.33;65.90;100177.90;107317;1256;69909;-39
2023/01/26 13:08:29;;;;;;;22.70;13.30;;;;;;;0.34;65.72;100171.52;107317;1257;73730;-39
2023/01/26 13:10:58;;;;;;;23.90;13.80;;;;;;;0.35;65.93;100173.26;107285;1256;60770;-39
2023/01/26 13:13:30;;;;;;;23.60;13.80;;;;;;;0.39;66.13;100172.83;107324;1255;60289;-39
2023/01/26 13:16:14;;;;;;;24.10;14.40;;;;;;;0.39;66.21;100174.70;107301;1256;75002;-39
2023/01/26 13:19:02;;;;;;;26.00;14.00;;;;;;;0.38;66.51;100171.33;107307;1256;69917;-39
2023/01/26 13:21:36;;;;;;;26.20;14.30;;;;;;;0.32;66.89;100172.73;107305;1256;73765;-39
2023/01/26 13:24:17;;;;;;;22.40;13.50;;;;;;;0.31;67.03;100168.20;107312;1256;62270;-40
2023/01/26 13:26:47;;;;;;;21.80;13.90;;;;;;;0.37;67.21;100174.44;107305;1256;61581;-39
2023/01/26 13:29:24;;;;;;;25.30;14.90;;;;;;;0.35;67.51;100176.41;107334;1256;73902;-40
2023/01/26 13:32:01;;;;;;;23.00;14.90;;;;;;;0.32;67.69;100173.77;107286;1256;69982;-40
2023/01/26 13:34:36;;;;;;;26.80;16.10;;;;;;;0.29;68.03;100170.77;107205;1256;73929;-40
2023/01/26 13:37:30;;;;;;;27.40;16.50;;;;;;;0.24;68.42;100169.09;107204;1255;60658;-40
2023/01/26 13:40:02;;;;;;;31.10;16.30;;;;;;;0.18;68.58;100164.80;107000;1256;61525;-40
2023/01/26 13:42:37;;;;;;;25.50;15.30;;;;;;;0.16;68.87;100164.68;107282;1256;73843;-40
2023/01/26 13:45:12;;;;;;;25.00;15.30;;;;;;;0.14;69.07;100163.15;107324;1255;69475;-39
2023/01/26 13:47:42;;;;;;;29.40;16.40;;;;;;;0.15;69.07;100163.40;107068;1256;72908;-39
2023/01/26 13:50:40;;;;;;;30.30;16.90;;;;;;;0.22;69.20;100160.77;107326;1256;60463;-39
2023/01/26 13:53:30;;;;;;;29.40;17.00;;;;;;;0.25;69.25;100159.10;107176;1256;61610;-39
2023/01/26 13:55:59;;;;;;;31.70;16.90;;;;;;;0.28;69.49;100155.83;107314;1256;75081;-39
2023/01/26 13:58:27;;;;;;;31.20;17.80;;;;;;;0.31;69.41;100155.14;107333;1256;69901;-39
2023/01/26 14:01:04;;;;;;;35.10;20.20;;;;;;;0.30;69.56;100151.36;106521;1256;1002850;-39
2023/01/26 14:03:33;;;;;;;29.90;17.50;;;;;;;0.26;69.86;100148.70;107315;1256;60409;-38
2023/01/26 14:06:07;;;;;;;34.70;19.20;;;;;;;0.23;70.20;100143.65;107298;1256;61484;-39
2023/01/26 14:08:36;;;;;;;31.90;18.30;;;;;;;0.28;70.66;100144.11;107281;1256;75048;-38
2023/01/26 14:11:18;;;;;;;30.30;17.20;;;;;;;0.36;70.55;100142.32;107295;1256;69585;-39
2023/01/26 14:13:51;;;;;;;31.40;17.70;;;;;;;0.41;70.73;100143.48;106548;1255;1002879;-39
2023/01/26 14:16:36;;;;;;;33.80;19.30;;;;;;;0.42;70.89;100144.11;107310;1255;60805;-39
2023/01/26 14:19:10;;;;;;;35.60;19.00;;;;;;;0.43;71.04;100141.88;107353;1256;61492;-39
2023/01/26 14:21:52;;;;;;;35.30;18.00;;;;;;;0.41;71.08;100147.16;107252;1256;74726;-39
2023/01/26 14:24:25;;;;;;;37.30;18.90;;;;;;;0.40;71.05;100142.45;107328;1260;69961;-39
2023/01/26 14:26:53;;;;;;;34.10;18.30;;;;;;;0.34;71.25;100138.74;107281;1255;73798;-40
2023/01/26 14:29:24;;;;;;;30.70;17.80;;;;;;;0.33;71.02;100137.75;107301;1256;62241;-40
2023/01/26 14:31:54;;;;;;;32.90;18.00;;;;;;;0.36;71.20;100134.33;107265;1256;60364;-40
2023/01/26 14:34:24;;;;;;;29.00;17.40;;;;;;;0.39;71.30;100131.54;107266;1255;72861;-40
2023/01/26 14:37:15;;;;;;;28.60;18.00;;;;;;;0.38;71.39;100135.43;107327;1256;69363;-40
2023/01/26 14:39:46;;;;;;;35.60;18.00;;;;;;;0.39;71.35;100130.73;107290;1256;73940;-40
2023/01/26 14:42:18;;;;;;;34.10;18.80;;;;;;;0.35;71.38;100133.95;106453;1255;1003516;-40
2023/01/26 14:44:47;;;;;;;33.20;18.40;;;;;;;0.32;71.51;100133.70;106478;1256;1002951;-40
2023/01/26 14:47:29;;;;;;;31.80;17.20;;;;;;;0.27;71.34;100135.11;107286;1256;75085;-40
2023/01/26 14:50:14;;;;;;;33.20;18.50;;;;;;;0.27;71.57;100137.45;107285;1256;67964;-40
2023/01/26 14:52:43;;;;;;;30.40;17.90;;;;;;;0.31;71.73;100135.25;107211;1256;73917;-40
2023/01/26 14:55:38;;;;;;;33.10;18.30;;;;;;;0.26;72.02;100140.45;107298;1256;61055;-40
2023/01/26 14:58:13;;;;;;;33.70;18.50;;;;;;;0.22;72.40;100137.36;107258;1255;61525;-38
2023/01/26 15:00:43;;;;;;;32.70;19.00;;;;;;;0.16;72.96;100138.88;107271;1256;74981;-39
2023/01/26 15:03:16;;;;;;;35.80;18.40;;;;;;;0.09;72.85;100135.06;107109;1256;70120;-40
2023/01/26 15:05:44;;;;;;;31.80;19.10;;;;;;;-0.04;73.54;100128.22;107290;1256;73546;-40
2023/01/26 15:08:22;;;;;;;31.30;18.90;;;;;;;-0.05;73.79;100131.41;107216;1257;62398;-39
2023/01/26 15:13:52;;;;;;;34.80;19.80;;;;;;;-0.07;74.54;100139.33;107275;1256;75467;-39
2023/01/26 15:16:24;;;;;;;36.20;19.80;;;;;;;-0.16;74.97;100141.05;107362;1256;68919;-39
2023/01/26 15:19:05;;;;;;;35.20;19.60;;;;;;;-0.22;75.39;100140.67;107286;1256;73843;-40
2023/01/26 15:21:42;;;;;;;32.90;18.50;;;;;;;-0.25;76.15;100143.94;107271;1256;62336;-40
2023/01/26 15:24:13;;;;;;;37.80;20.20;;;;;;;-0.21;76.05;100147.81;107265;1255;60400;-39
2023/01/26 15:26:43;;;;;;;36.70;19.90;;;;;;;-0.21;76.42;100147.02;107331;1260;74845;-39
2023/01/26 15:29:24;;;;;;;36.20;19.60;;;;;;;-0.22;76.51;100147.60;107200;1260;68774;-39
2023/01/26 15:31:54;;;;;;;35.50;19.50;;;;;;;-0.25;76.63;100148.63;107303;1256;72935;-39
2023/01/26 15:34:33;;;;;;;38.80;20.10;;;;;;;-0.31;76.55;100141.38;107293;1256;61031;-39
2023/01/26 15:37:03;;;;;;;34.10;18.20;;;;;;;-0.34;76.63;100123.33;107278;1256;61102;-38
2023/01/26 15:39:31;;;;;;;;;;;;;;;-0.20;76.56;100130.00;107229;1256;75034;-39
2023/01/26 15:42:14;;;;;;;35.10;19.40;;;;;;;-0.22;76.94;100127.62;107215;1255;70074;-40
2023/01/26 15:44:42;;;;;;;35.20;20.00;;;;;;;-0.24;77.08;100135.88;107201;1256;73565;-40
2023/01/26 15:47:12;;;;;;;33.90;20.30;;;;;;;-0.24;76.96;100137.31;107273;1256;60838;-40
2023/01/26 15:49:41;;;;;;;37.10;19.70;;;;;;;-0.26;76.90;100137.27;107263;1255;62205;-40
2023/01/26 15:52:17;;;;;;;33.20;18.10;;;;;;;-0.20;76.86;100135.70;107192;1260;74950;-40
2023/01/26 15:54:46;;;;;;;32.20;18.10;;;;;;;-0.09;76.61;100134.89;107219;1257;68072;-39
2023/01/26 15:57:14;;;;;;;35.10;18.40;;;;;;;-0.05;76.37;100138.77;107227;1255;73863;-41
2023/01/26 15:59:44;;;;;;;32.80;18.30;;;;;;;-0.03;76.21;100141.81;107269;1260;60299;-40
2023/01/26 16:02:16;;;;;;;31.70;18.50;;;;;;;-0.03;75.95;100139.52;107250;1256;61342;-40
2023/01/26 16:04:45;;;;;;;34.20;17.50;;;;;;;-0.04;75.78;100139.94;107298;1256;74812;-40
2023/01/26 16:07:15;;;;;;;28.80;16.90;;;;;;;-0.06;75.53;100134.84;107254;1256;70035;-40
2023/01/26 16:09:44;;;;;;;28.10;17.00;;;;;;;-0.11;75.28;100138.10;107325;1256;74379;-39
2023/01/26 20:25:51;;;;;;;40.50;25.50;;;;;;;0.47;80.68;100078.61;104963;1282;613334;-40
2023/01/26 20:28:20;;;;;;;45.70;25.80;;;;;;;0.88;78.42;100075.34;106495;1267;213024;-40
2023/01/26 20:30:48;;;;;;;40.10;23.00;;;;;;;0.78;78.47;100074.06;106715;1264;61505;-39
2023/01/26 20:33:16;;;;;;;40.10;22.00;;;;;;;0.76;78.02;100081.23;106781;1268;70497;-40
2023/01/26 20:35:45;;;;;;;44.10;22.60;;;;;;;0.78;77.55;100082.92;106736;1264;69952;-40
2023/01/26 20:38:13;;;;;;;44.00;24.30;;;;;;;0.74;76.61;100088.34;106816;1267;73659;-40
2023/01/26 20:40:42;;;;;;;41.20;23.90;;;;;;;0.67;76.48;100092.13;106842;1267;59749;-40